Time,TemperatureF,DewpointF,PressureIn,WindDirection,WindDirectionDegrees,WindSpeedMPH,WindSpeedGustMPH,Humidity,HourlyPrecipIn,Conditions,Clouds,dailyrainin,SoftwareType,DateUTC
2013-08-03 00:02:00,72.5,68.4,29.94,NNE,27,0.0,0.0,87,0.00,,FEW250,0.00,VWS V14.00,2013-08-03 04:02:00,
2013-08-03 00:17:00,72.5,68.4,29.93,NNE,27,0.0,0.0,87,0.00,,FEW250,0.00,VWS V14.00,2013-08-03 04:17:00,
2013-08-03 00:32:00,72.5,68.8,29.94,NNE,27,0.0,0.0,88,0.00,,FEW250,0.00,VWS V14.00,2013-08-03 04:32:00,
2013-08-03 00:47:00,72.5,68.4,29.94,NNE,27,0.0,0.0,87,0.00,,FEW250,0.00,VWS V14.00,2013-08-03 04:47:00,
2013-08-03 01:02:00,72.3,68.2,29.94,NNE,27,0.0,0.0,87,0.00,,SCT250,0.00,VWS V14.00,2013-08-03 05:02:00,
2013-08-03 01:17:00,72.0,68.3,29.93,NNE,27,0.0,0.0,88,0.00,,SCT250,0.00,VWS V14.00,2013-08-03 05:17:00,
2013-08-03 01:32:00,71.8,68.4,29.93,NNE,27,0.0,0.0,89,0.00,,SCT250,0.00,VWS V14.00,2013-08-03 05:32:00,
2013-08-03 01:47:00,71.6,68.2,29.93,NNE,27,0.0,0.0,89,0.00,,SCT250,0.00,VWS V14.00,2013-08-03 05:47:00,
2013-08-03 02:02:00,71.6,68.2,29.92,NNE,27,0.0,0.0,89,0.00,,FEW250,0.00,VWS V14.00,2013-08-03 06:02:00,
2013-08-03 02:17:00,71.5,68.4,29.92,NNE,27,0.0,0.0,90,0.00,,FEW250,0.00,VWS V14.00,2013-08-03 06:17:00,
2013-08-03 02:32:00,71.6,68.5,29.92,NNE,27,0.0,0.0,90,0.00,,FEW250,0.00,VWS V14.00,2013-08-03 06:32:00,
2013-08-03 02:47:00,71.8,68.7,29.92,NNE,27,0.0,0.0,90,0.00,,FEW250,0.00,VWS V14.00,2013-08-03 06:47:00,
2013-08-03 03:02:00,71.8,68.7,29.91,NNE,27,0.0,0.0,90,0.00,,FEW250,0.00,VWS V14.00,2013-08-03 07:02:00,
2013-08-03 03:17:00,71.8,68.7,29.92,NNE,27,0.0,0.0,90,0.00,,FEW250,0.00,VWS V14.00,2013-08-03 07:17:00,
2013-08-03 03:32:00,71.6,68.8,29.91,NNE,27,0.0,0.0,91,0.00,,FEW250,0.00,VWS V14.00,2013-08-03 07:32:00,
2013-08-03 03:47:00,71.6,68.8,29.91,NNE,27,0.0,0.0,91,0.00,,FEW250,0.00,VWS V14.00,2013-08-03 07:47:00,
2013-08-03 04:02:00,71.6,68.8,29.91,NNE,27,0.0,0.0,91,0.00,,SCT250,0.00,VWS V14.00,2013-08-03 08:02:00,
2013-08-03 04:17:00,71.6,68.8,29.90,NNE,27,0.0,0.0,91,0.00,,SCT250,0.00,VWS V14.00,2013-08-03 08:17:00,
2013-08-03 04:32:00,71.5,68.7,29.90,NNE,27,0.0,0.0,91,0.00,,SCT250,0.00,VWS V14.00,2013-08-03 08:32:00,
2013-08-03 04:47:00,71.5,68.7,29.90,NNE,27,0.0,0.0,91,0.00,,SCT250,0.00,VWS V14.00,2013-08-03 08:47:00,
2013-08-03 05:02:00,71.6,68.8,29.90,NNE,27,0.0,0.0,91,0.00,,BKN250,0.00,VWS V14.00,2013-08-03 09:02:00,
2013-08-03 05:17:00,71.8,69.0,29.90,NNE,27,0.0,0.0,91,0.00,,BKN250,0.00,VWS V14.00,2013-08-03 09:17:00,
2013-08-03 05:32:00,72.1,69.7,29.90,NNE,27,0.0,0.0,92,0.00,,BKN250,0.00,VWS V14.00,2013-08-03 09:32:00,
2013-08-03 05:47:00,72.7,69.9,29.90,NNE,27,0.0,0.0,91,0.00,,BKN250,0.00,VWS V14.00,2013-08-03 09:47:00,
2013-08-03 06:02:00,73.0,69.9,29.91,NNE,27,0.0,0.0,90,0.00,,BKN250,0.00,VWS V14.00,2013-08-03 10:02:00,
2013-08-03 06:17:00,73.2,70.1,29.91,NNE,27,0.0,0.0,90,0.00,,BKN250,0.00,VWS V14.00,2013-08-03 10:17:00,
2013-08-03 06:32:00,73.0,69.9,29.91,NNE,27,0.0,0.0,90,0.00,,BKN250,0.00,VWS V14.00,2013-08-03 10:32:00,
2013-08-03 06:47:00,72.8,69.7,29.92,NNE,27,0.0,0.0,90,0.00,,BKN250,0.00,VWS V14.00,2013-08-03 10:47:00,
2013-08-03 07:02:00,72.7,69.6,29.92,NNE,27,0.0,0.0,90,0.00,,BKN200,0.00,VWS V14.00,2013-08-03 11:02:00,
2013-08-03 07:17:00,72.7,69.9,29.92,NNE,27,0.0,0.0,91,0.00,,BKN200,0.00,VWS V14.00,2013-08-03 11:17:00,
2013-08-03 07:32:00,73.0,70.2,29.92,NNE,27,0.0,0.0,91,0.00,,BKN200,0.00,VWS V14.00,2013-08-03 11:32:00,
2013-08-03 07:47:00,73.7,70.9,29.92,NNE,27,0.0,0.0,91,0.00,,BKN200,0.00,VWS V14.00,2013-08-03 11:47:00,
2013-08-03 08:02:00,74.0,71.2,29.92,NNE,27,0.0,0.0,91,0.00,,BKN200,0.00,VWS V14.00,2013-08-03 12:02:00,
2013-08-03 08:17:00,74.9,72.1,29.92,NNE,27,0.0,0.0,91,0.00,,BKN200,0.00,VWS V14.00,2013-08-03 12:17:00,
2013-08-03 08:32:00,75.6,72.1,29.92,NNE,27,0.0,0.0,89,0.00,,BKN200,0.00,VWS V14.00,2013-08-03 12:32:00,
2013-08-03 08:47:00,76.3,72.2,29.92,NNE,27,0.0,0.0,87,0.00,,BKN200,0.00,VWS V14.00,2013-08-03 12:47:00,
2013-08-03 09:02:00,76.8,71.9,29.92,NNE,27,0.0,0.0,85,0.00,,,0.00,VWS V14.00,2013-08-03 13:02:00,
2013-08-03 09:17:00,77.6,72.7,29.92,NNE,27,0.0,1.0,85,0.00,,,0.00,VWS V14.00,2013-08-03 13:17:00,
2013-08-03 09:32:00,78.3,73.1,29.92,NNE,27,0.0,1.0,84,0.00,,,0.00,VWS V14.00,2013-08-03 13:32:00,
2013-08-03 09:47:00,79.2,73.6,29.92,NNE,27,0.0,0.0,83,0.00,,,0.00,VWS V14.00,2013-08-03 13:47:00,
2013-08-03 10:02:00,80.1,73.8,29.91,NNE,27,0.0,1.0,81,0.00,,BKN200,0.00,VWS V14.00,2013-08-03 14:02:00,
2013-08-03 10:17:00,80.3,73.6,29.92,NNE,27,0.0,1.0,80,0.00,,BKN200,0.00,VWS V14.00,2013-08-03 14:17:00,
2013-08-03 10:47:00,80.5,73.8,29.91,NNE,28,0.0,1.0,80,0.00,,BKN200,0.00,VWS V14.00,2013-08-03 14:47:00,
2013-08-03 11:02:00,81.4,74.6,29.91,NNE,28,0.0,0.0,80,0.00,,OVC210,0.00,VWS V14.00,2013-08-03 15:02:00,
2013-08-03 11:17:00,83.0,75.1,29.91,NNE,25,0.0,0.0,77,0.00,,OVC210,0.00,VWS V14.00,2013-08-03 15:17:00,
2013-08-03 11:32:00,84.3,76.3,29.90,NNE,27,0.0,0.0,77,0.00,,OVC210,0.00,VWS V14.00,2013-08-03 15:32:00,
2013-08-03 11:47:00,84.3,76.3,29.92,NNE,27,0.0,0.0,77,0.00,,OVC210,0.00,VWS V14.00,2013-08-03 15:47:00,
2013-08-03 12:02:00,84.3,76.3,29.92,NNE,27,0.0,0.0,77,0.00,,OVC170,0.00,VWS V14.00,2013-08-03 16:02:00,
2013-08-03 12:17:00,84.3,76.3,29.92,NNE,27,0.0,0.0,77,0.00,,OVC170,0.00,VWS V14.00,2013-08-03 16:17:00,
2013-08-03 12:47:00,84.3,76.3,29.91,NNE,27,0.0,0.0,77,0.00,,OVC170,0.00,VWS V14.00,2013-08-03 16:47:00,
2013-08-03 13:02:00,84.3,76.3,29.90,NNE,27,0.0,0.0,77,0.00,,BKN190,0.00,VWS V14.00,2013-08-03 17:02:00,
2013-08-03 13:17:00,84.3,76.3,29.90,NNE,27,0.0,0.0,77,0.00,,BKN190,0.00,VWS V14.00,2013-08-03 17:17:00,
2013-08-03 13:32:00,84.3,76.3,29.90,NNE,27,0.0,0.0,77,0.00,,BKN190,0.00,VWS V14.00,2013-08-03 17:32:00,
2013-08-03 13:47:00,84.3,76.3,29.90,NNE,27,0.0,0.0,77,0.00,,BKN190,0.00,VWS V14.00,2013-08-03 17:47:00,
2013-08-03 14:02:00,84.3,76.3,29.90,NNE,27,0.0,0.0,77,0.00,,BKN085,0.00,VWS V14.00,2013-08-03 18:02:00,
2013-08-03 14:17:00,84.3,76.3,29.89,NNE,27,0.0,0.0,77,0.00,,BKN085,0.00,VWS V14.00,2013-08-03 18:17:00,
2013-08-03 14:32:00,84.3,76.3,29.88,NNE,27,0.0,0.0,77,0.00,,BKN085,0.00,VWS V14.00,2013-08-03 18:32:00,
2013-08-03 14:47:00,84.3,76.3,29.88,NNE,27,0.0,0.0,77,0.00,,BKN085,0.00,VWS V14.00,2013-08-03 18:47:00,
2013-08-03 15:02:00,84.3,76.3,29.87,NNE,27,0.0,0.0,77,0.00,,BKN150,0.00,VWS V14.00,2013-08-03 19:02:00,
2013-08-03 15:17:00,84.3,76.3,29.87,NNE,27,0.0,0.0,77,0.00,,BKN150,0.00,VWS V14.00,2013-08-03 19:17:00,
2013-08-03 15:32:00,84.3,76.3,29.86,NNE,27,0.0,0.0,77,0.00,,BKN150,0.00,VWS V14.00,2013-08-03 19:32:00,
2013-08-03 15:47:00,84.3,76.3,29.87,NNE,27,0.0,0.0,77,0.00,,BKN150,0.00,VWS V14.00,2013-08-03 19:47:00,
2013-08-03 16:02:00,84.3,76.3,29.86,NNE,27,0.0,0.0,77,0.00,,BKN250,0.00,VWS V14.00,2013-08-03 20:02:00,
2013-08-03 16:17:00,84.3,76.3,29.86,NNE,27,0.0,0.0,77,0.00,,BKN250,0.00,VWS V14.00,2013-08-03 20:17:00,
2013-08-03 16:32:00,84.3,76.3,29.85,NNE,27,0.0,0.0,77,0.00,,BKN250,0.00,VWS V14.00,2013-08-03 20:32:00,
2013-08-03 16:47:00,84.3,76.3,29.85,NNE,27,0.0,0.0,77,0.00,,BKN250,0.00,VWS V14.00,2013-08-03 20:47:00,
2013-08-03 17:02:00,84.3,76.3,29.85,NNE,27,0.0,0.0,77,0.00,,BKN250,0.00,VWS V14.00,2013-08-03 21:02:00,
2013-08-03 17:17:00,84.3,76.3,29.85,NNE,27,0.0,0.0,77,0.00,,BKN250,0.00,VWS V14.00,2013-08-03 21:17:00,
2013-08-03 17:32:00,84.3,76.3,29.85,NNE,27,0.0,0.0,77,0.00,,BKN250,0.00,VWS V14.00,2013-08-03 21:32:00,
2013-08-03 17:47:00,84.3,76.3,29.86,NNE,27,0.0,0.0,77,0.00,,BKN250,0.00,VWS V14.00,2013-08-03 21:47:00,
2013-08-03 18:02:00,84.3,76.3,29.85,NNE,27,0.0,0.0,77,0.00,,OVC250,0.00,VWS V14.00,2013-08-03 22:02:00,
2013-08-03 18:17:00,84.3,76.3,29.86,NNE,27,0.0,0.0,77,0.00,,OVC250,0.00,VWS V14.00,2013-08-03 22:17:00,
2013-08-03 18:32:00,84.3,76.3,29.85,NNE,27,0.0,0.0,77,0.00,,OVC250,0.00,VWS V14.00,2013-08-03 22:32:00,
2013-08-03 18:47:00,81.1,74.0,29.84,WSW,239,0.0,0.0,79,0.02,,OVC250,0.02,VWS V14.00,2013-08-03 22:47:00,
2013-08-03 19:02:00,80.3,75.0,29.84,WSW,239,0.0,0.0,84,0.03,,BKN250,0.03,VWS V14.00,2013-08-03 23:02:00,
2013-08-03 19:17:00,79.9,75.0,29.83,WSW,239,0.0,0.0,85,0.03,,BKN250,0.03,VWS V14.00,2013-08-03 23:17:00,
2013-08-03 19:32:00,79.6,75.1,29.84,WSW,239,0.0,0.0,86,0.03,,BKN250,0.03,VWS V14.00,2013-08-03 23:32:00,
2013-08-03 19:47:00,79.0,74.5,29.84,WSW,239,0.0,0.0,86,0.03,,BKN250,0.03,VWS V14.00,2013-08-03 23:47:00,
2013-08-03 20:02:00,78.6,74.4,29.84,WSW,239,0.0,0.0,87,0.01,,BKN250,0.03,VWS V14.00,2013-08-04 00:02:00,
2013-08-03 20:17:00,78.1,74.3,29.84,WSW,239,0.0,0.0,88,0.00,,BKN250,0.03,VWS V14.00,2013-08-04 00:17:00,
2013-08-03 20:32:00,77.7,74.2,29.84,WSW,239,0.0,0.0,89,0.00,,BKN250,0.03,VWS V14.00,2013-08-04 00:32:00,
2013-08-03 20:47:00,77.6,73.4,29.85,WSW,239,0.0,0.0,87,0.00,,BKN250,0.03,VWS V14.00,2013-08-04 00:47:00,
2013-08-03 21:02:00,76.8,71.9,29.84,WSW,239,0.0,0.0,85,0.00,,BKN250,0.03,VWS V14.00,2013-08-04 01:02:00,
2013-08-03 21:17:00,76.3,71.8,29.85,WSW,239,0.0,0.0,86,0.00,,BKN250,0.03,VWS V14.00,2013-08-04 01:17:00,
2013-08-03 21:32:00,76.0,71.9,29.85,WSW,239,0.0,0.0,87,0.00,,BKN250,0.03,VWS V14.00,2013-08-04 01:32:00,
2013-08-03 21:47:00,75.6,71.5,29.86,WSW,239,0.0,0.0,87,0.00,,BKN250,0.03,VWS V14.00,2013-08-04 01:47:00,
2013-08-03 22:02:00,74.9,70.8,29.87,WSW,239,0.0,0.0,87,0.00,,BKN250,0.03,VWS V14.00,2013-08-04 02:02:00,
2013-08-03 22:17:00,74.6,70.8,29.86,WSW,239,0.0,0.0,88,0.00,,BKN250,0.03,VWS V14.00,2013-08-04 02:17:00,
2013-08-03 22:32:00,74.2,70.8,29.87,WSW,239,0.0,0.0,89,0.00,,BKN250,0.03,VWS V14.00,2013-08-04 02:32:00,
2013-08-03 22:47:00,74.0,70.6,29.86,WSW,239,0.0,0.0,89,0.00,,BKN250,0.03,VWS V14.00,2013-08-04 02:47:00,
2013-08-03 23:02:00,73.9,70.8,29.86,WSW,239,0.0,0.0,90,0.00,,SCT250,0.03,VWS V14.00,2013-08-04 03:02:00,
2013-08-03 23:17:00,73.7,70.6,29.87,WSW,239,0.0,0.0,90,0.00,,SCT250,0.03,VWS V14.00,2013-08-04 03:17:00,
2013-08-03 23:32:00,73.3,70.2,29.87,WSW,239,0.0,0.0,90,0.00,,SCT250,0.03,VWS V14.00,2013-08-04 03:32:00,
2013-08-03 23:47:00,73.2,70.1,29.87,WSW,239,0.0,0.0,90,0.00,,SCT250,0.03,VWS V14.00,2013-08-04 03:47:00,